sensor_id;sensor_type;location;lat;lon;timestamp;P1;durP1;ratioP1;P2;durP2;ratioP2
16502;SDS011;53067;48.114;11.694;2022-12-18T00:01:20;36.27;;;18.27;;
16502;SDS011;53067;48.114;11.694;2022-12-18T00:03:49;34.63;;;18.37;;
16502;SDS011;53067;48.114;11.694;2022-12-18T00:06:18;34.63;;;16.80;;
16502;SDS011;53067;48.114;11.694;2022-12-18T00:08:46;36.03;;;17.47;;
16502;SDS011;53067;48.114;11.694;2022-12-18T00:11:15;37.33;;;18.73;;
16502;SDS011;53067;48.114;11.694;2022-12-18T00:13:44;40.00;;;18.07;;
16502;SDS011;53067;48.114;11.694;2022-12-18T00:16:13;34.20;;;17.30;;
16502;SDS011;53067;48.114;11.694;2022-12-18T00:18:44;34.90;;;17.87;;
16502;SDS011;53067;48.114;11.694;2022-12-18T00:21:12;32.13;;;17.50;;
16502;SDS011;53067;48.114;11.694;2022-12-18T00:23:41;34.27;;;17.30;;
16502;SDS011;53067;48.114;11.694;2022-12-18T00:26:11;36.63;;;17.10;;
16502;SDS011;53067;48.114;11.694;2022-12-18T00:28:41;33.63;;;16.10;;
16502;SDS011;53067;48.114;11.694;2022-12-18T00:31:10;33.73;;;17.00;;
16502;SDS011;53067;48.114;11.694;2022-12-18T00:33:40;33.23;;;16.30;;
16502;SDS011;53067;48.114;11.694;2022-12-18T00:36:09;33.87;;;16.33;;
16502;SDS011;53067;48.114;11.694;2022-12-18T00:38:38;29.83;;;15.93;;
16502;SDS011;53067;48.114;11.694;2022-12-18T00:41:07;33.13;;;16.73;;
16502;SDS011;53067;48.114;11.694;2022-12-18T00:43:36;34.70;;;15.43;;
16502;SDS011;53067;48.114;11.694;2022-12-18T00:46:05;28.47;;;16.47;;
16502;SDS011;53067;48.114;11.694;2022-12-18T00:48:32;34.80;;;17.87;;
16502;SDS011;53067;48.114;11.694;2022-12-18T00:51:00;30.73;;;16.47;;
16502;SDS011;53067;48.114;11.694;2022-12-18T00:53:27;29.70;;;16.13;;
16502;SDS011;53067;48.114;11.694;2022-12-18T00:55:55;31.83;;;16.03;;
16502;SDS011;53067;48.114;11.694;2022-12-18T00:58:22;34.63;;;17.17;;
16502;SDS011;53067;48.114;11.694;2022-12-18T01:00:50;30.53;;;17.13;;
16502;SDS011;53067;48.114;11.694;2022-12-18T01:03:18;38.80;;;17.33;;
16502;SDS011;53067;48.114;11.694;2022-12-18T01:05:45;34.87;;;17.13;;
16502;SDS011;53067;48.114;11.694;2022-12-18T01:08:13;39.87;;;18.73;;
16502;SDS011;53067;48.114;11.694;2022-12-18T01:10:40;36.37;;;18.07;;
16502;SDS011;53067;48.114;11.694;2022-12-18T01:13:08;30.97;;;16.53;;
16502;SDS011;53067;48.114;11.694;2022-12-18T01:15:35;36.03;;;18.73;;
16502;SDS011;53067;48.114;11.694;2022-12-18T01:18:03;37.90;;;17.87;;
16502;SDS011;53067;48.114;11.694;2022-12-18T01:20:30;40.40;;;18.90;;
16502;SDS011;53067;48.114;11.694;2022-12-18T01:22:58;34.20;;;17.67;;
16502;SDS011;53067;48.114;11.694;2022-12-18T01:25:26;38.77;;;19.33;;
16502;SDS011;53067;48.114;11.694;2022-12-18T01:27:53;35.87;;;18.70;;
16502;SDS011;53067;48.114;11.694;2022-12-18T01:30:21;36.20;;;17.40;;
16502;SDS011;53067;48.114;11.694;2022-12-18T01:32:48;37.00;;;18.57;;
16502;SDS011;53067;48.114;11.694;2022-12-18T01:35:16;36.73;;;18.20;;
16502;SDS011;53067;48.114;11.694;2022-12-18T01:37:43;36.63;;;17.73;;
16502;SDS011;53067;48.114;11.694;2022-12-18T01:40:11;37.77;;;18.63;;
16502;SDS011;53067;48.114;11.694;2022-12-18T01:42:39;34.43;;;17.53;;
16502;SDS011;53067;48.114;11.694;2022-12-18T01:45:21;37.13;;;19.67;;
16502;SDS011;53067;48.114;11.694;2022-12-18T01:50:17;36.33;;;18.30;;
16502;SDS011;53067;48.114;11.694;2022-12-18T01:52:50;39.10;;;19.60;;
16502;SDS011;53067;48.114;11.694;2022-12-18T01:55:21;38.20;;;19.13;;
16502;SDS011;53067;48.114;11.694;2022-12-18T01:57:52;36.40;;;18.57;;
16502;SDS011;53067;48.114;11.694;2022-12-18T02:00:21;40.43;;;19.10;;
16502;SDS011;53067;48.114;11.694;2022-12-18T02:02:49;39.07;;;18.40;;
16502;SDS011;53067;48.114;11.694;2022-12-18T02:05:26;36.37;;;19.33;;
16502;SDS011;53067;48.114;11.694;2022-12-18T02:16:21;40.57;;;20.33;;
16502;SDS011;53067;48.114;11.694;2022-12-18T02:19:00;37.53;;;19.17;;
16502;SDS011;53067;48.114;11.694;2022-12-18T02:26:45;37.87;;;19.83;;
16502;SDS011;53067;48.114;11.694;2022-12-18T02:29:15;40.97;;;19.40;;
16502;SDS011;53067;48.114;11.694;2022-12-18T02:31:45;41.07;;;21.00;;
16502;SDS011;53067;48.114;11.694;2022-12-18T02:34:15;47.07;;;20.27;;
16502;SDS011;53067;48.114;11.694;2022-12-18T02:36:45;39.50;;;19.97;;
16502;SDS011;53067;48.114;11.694;2022-12-18T02:39:14;42.27;;;20.97;;
16502;SDS011;53067;48.114;11.694;2022-12-18T02:41:43;40.53;;;20.33;;
16502;SDS011;53067;48.114;11.694;2022-12-18T02:44:12;36.33;;;18.50;;
16502;SDS011;53067;48.114;11.694;2022-12-18T02:46:41;37.93;;;19.57;;
16502;SDS011;53067;48.114;11.694;2022-12-18T02:49:12;34.43;;;18.53;;
16502;SDS011;53067;48.114;11.694;2022-12-18T02:52:21;38.00;;;18.23;;
16502;SDS011;53067;48.114;11.694;2022-12-18T02:55:22;41.37;;;19.43;;
16502;SDS011;53067;48.114;11.694;2022-12-18T02:57:55;35.80;;;19.33;;
16502;SDS011;53067;48.114;11.694;2022-12-18T03:03:12;44.77;;;20.87;;
16502;SDS011;53067;48.114;11.694;2022-12-18T03:05:50;36.70;;;19.27;;
16502;SDS011;53067;48.114;11.694;2022-12-18T03:08:38;43.03;;;19.97;;
16502;SDS011;53067;48.114;11.694;2022-12-18T03:11:04;43.40;;;21.90;;
16502;SDS011;53067;48.114;11.694;2022-12-18T03:13:39;42.17;;;20.90;;
16502;SDS011;53067;48.114;11.694;2022-12-18T03:16:09;38.13;;;19.17;;
16502;SDS011;53067;48.114;11.694;2022-12-18T03:18:42;39.43;;;18.67;;
16502;SDS011;53067;48.114;11.694;2022-12-18T03:21:19;37.77;;;20.47;;
16502;SDS011;53067;48.114;11.694;2022-12-18T03:23:49;41.30;;;19.73;;
16502;SDS011;53067;48.114;11.694;2022-12-18T03:26:19;39.07;;;18.90;;
16502;SDS011;53067;48.114;11.694;2022-12-18T03:28:55;33.43;;;19.30;;
16502;SDS011;53067;48.114;11.694;2022-12-18T03:31:21;35.07;;;18.23;;
16502;SDS011;53067;48.114;11.694;2022-12-18T03:36:23;40.67;;;19.07;;
16502;SDS011;53067;48.114;11.694;2022-12-18T03:38:51;37.53;;;19.20;;
16502;SDS011;53067;48.114;11.694;2022-12-18T03:41:29;36.90;;;18.13;;
16502;SDS011;53067;48.114;11.694;2022-12-18T03:47:25;36.53;;;17.73;;
16502;SDS011;53067;48.114;11.694;2022-12-18T03:49:57;36.43;;;17.13;;
16502;SDS011;53067;48.114;11.694;2022-12-18T03:52:33;35.17;;;17.63;;
16502;SDS011;53067;48.114;11.694;2022-12-18T03:55:13;35.53;;;17.10;;
16502;SDS011;53067;48.114;11.694;2022-12-18T03:57:41;36.97;;;18.40;;
16502;SDS011;53067;48.114;11.694;2022-12-18T04:00:11;32.90;;;17.57;;
16502;SDS011;53067;48.114;11.694;2022-12-18T04:02:46;35.20;;;18.20;;
16502;SDS011;53067;48.114;11.694;2022-12-18T04:05:11;37.17;;;18.37;;
16502;SDS011;53067;48.114;11.694;2022-12-18T04:07:40;38.73;;;19.60;;
16502;SDS011;53067;48.114;11.694;2022-12-18T04:10:09;36.07;;;18.33;;
16502;SDS011;53067;48.114;11.694;2022-12-18T04:12:38;32.30;;;16.93;;
16502;SDS011;53067;48.114;11.694;2022-12-18T04:15:07;36.50;;;17.47;;
16502;SDS011;53067;48.114;11.694;2022-12-18T04:17:36;35.33;;;17.40;;
16502;SDS011;53067;48.114;11.694;2022-12-18T04:20:04;36.43;;;17.63;;
16502;SDS011;53067;48.114;11.694;2022-12-18T04:22:32;33.97;;;17.67;;
16502;SDS011;53067;48.114;11.694;2022-12-18T04:24:59;31.77;;;17.07;;
16502;SDS011;53067;48.114;11.694;2022-12-18T04:27:27;33.87;;;16.57;;
16502;SDS011;53067;48.114;11.694;2022-12-18T04:29:55;33.33;;;18.13;;
16502;SDS011;53067;48.114;11.694;2022-12-18T04:32:22;35.57;;;18.40;;
16502;SDS011;53067;48.114;11.694;2022-12-18T04:34:50;33.23;;;17.83;;
16502;SDS011;53067;48.114;11.694;2022-12-18T04:37:17;34.67;;;18.30;;
16502;SDS011;53067;48.114;11.694;2022-12-18T04:39:45;38.63;;;17.97;;
16502;SDS011;53067;48.114;11.694;2022-12-18T04:42:12;34.20;;;18.43;;
16502;SDS011;53067;48.114;11.694;2022-12-18T04:44:40;30.93;;;17.43;;
16502;SDS011;53067;48.114;11.694;2022-12-18T04:47:07;37.10;;;17.47;;
16502;SDS011;53067;48.114;11.694;2022-12-18T04:49:35;35.13;;;17.73;;
16502;SDS011;53067;48.114;11.694;2022-12-18T04:52:02;37.80;;;19.27;;
16502;SDS011;53067;48.114;11.694;2022-12-18T04:54:30;36.90;;;17.97;;
16502;SDS011;53067;48.114;11.694;2022-12-18T04:56:57;34.43;;;17.13;;
16502;SDS011;53067;48.114;11.694;2022-12-18T04:59:25;38.10;;;17.97;;
16502;SDS011;53067;48.114;11.694;2022-12-18T05:01:52;34.13;;;16.93;;
16502;SDS011;53067;48.114;11.694;2022-12-18T05:04:20;32.70;;;15.97;;
16502;SDS011;53067;48.114;11.694;2022-12-18T05:06:47;36.47;;;17.87;;
16502;SDS011;53067;48.114;11.694;2022-12-18T05:09:15;31.30;;;16.07;;
16502;SDS011;53067;48.114;11.694;2022-12-18T05:11:42;32.80;;;16.73;;
16502;SDS011;53067;48.114;11.694;2022-12-18T05:14:10;33.77;;;17.33;;
16502;SDS011;53067;48.114;11.694;2022-12-18T05:16:37;32.97;;;17.43;;
16502;SDS011;53067;48.114;11.694;2022-12-18T05:19:05;32.50;;;16.83;;
16502;SDS011;53067;48.114;11.694;2022-12-18T05:21:32;31.07;;;17.87;;
16502;SDS011;53067;48.114;11.694;2022-12-18T05:24:00;34.80;;;17.10;;
16502;SDS011;53067;48.114;11.694;2022-12-18T05:26:28;33.23;;;17.10;;
16502;SDS011;53067;48.114;11.694;2022-12-18T05:28:55;34.60;;;17.17;;
16502;SDS011;53067;48.114;11.694;2022-12-18T05:31:23;33.43;;;17.03;;
16502;SDS011;53067;48.114;11.694;2022-12-18T05:33:50;35.17;;;17.30;;
16502;SDS011;53067;48.114;11.694;2022-12-18T05:36:18;31.20;;;16.37;;
16502;SDS011;53067;48.114;11.694;2022-12-18T05:38:45;34.63;;;16.03;;
16502;SDS011;53067;48.114;11.694;2022-12-18T05:41:13;32.20;;;16.73;;
16502;SDS011;53067;48.114;11.694;2022-12-18T05:43:40;30.93;;;15.40;;
16502;SDS011;53067;48.114;11.694;2022-12-18T05:46:10;32.33;;;15.93;;
16502;SDS011;53067;48.114;11.694;2022-12-18T05:48:41;32.77;;;16.77;;
16502;SDS011;53067;48.114;11.694;2022-12-18T05:51:15;29.60;;;16.17;;
16502;SDS011;53067;48.114;11.694;2022-12-18T05:53:44;30.63;;;14.73;;
16502;SDS011;53067;48.114;11.694;2022-12-18T05:56:17;29.57;;;14.40;;
16502;SDS011;53067;48.114;11.694;2022-12-18T05:58:46;29.40;;;15.97;;
16502;SDS011;53067;48.114;11.694;2022-12-18T06:01:15;25.03;;;13.83;;
16502;SDS011;53067;48.114;11.694;2022-12-18T06:03:45;26.57;;;15.23;;
16502;SDS011;53067;48.114;11.694;2022-12-18T06:06:13;30.57;;;15.53;;
16502;SDS011;53067;48.114;11.694;2022-12-18T06:08:43;28.80;;;14.97;;
16502;SDS011;53067;48.114;11.694;2022-12-18T06:11:10;29.63;;;15.77;;
16502;SDS011;53067;48.114;11.694;2022-12-18T06:13:38;32.73;;;16.43;;
16502;SDS011;53067;48.114;11.694;2022-12-18T06:16:05;32.60;;;16.07;;
16502;SDS011;53067;48.114;11.694;2022-12-18T06:18:34;33.03;;;16.80;;
16502;SDS011;53067;48.114;11.694;2022-12-18T06:21:01;31.53;;;15.47;;
16502;SDS011;53067;48.114;11.694;2022-12-18T06:23:29;33.27;;;17.43;;
16502;SDS011;53067;48.114;11.694;2022-12-18T06:25:56;31.77;;;16.87;;
16502;SDS011;53067;48.114;11.694;2022-12-18T06:28:24;32.20;;;15.50;;
16502;SDS011;53067;48.114;11.694;2022-12-18T06:30:51;34.03;;;17.33;;
16502;SDS011;53067;48.114;11.694;2022-12-18T06:33:19;34.13;;;16.70;;
16502;SDS011;53067;48.114;11.694;2022-12-18T06:35:47;30.40;;;14.93;;
16502;SDS011;53067;48.114;11.694;2022-12-18T06:38:14;31.03;;;15.77;;
16502;SDS011;53067;48.114;11.694;2022-12-18T06:40:42;35.80;;;16.00;;
16502;SDS011;53067;48.114;11.694;2022-12-18T06:43:09;32.17;;;15.03;;
16502;SDS011;53067;48.114;11.694;2022-12-18T06:45:37;32.27;;;16.50;;
16502;SDS011;53067;48.114;11.694;2022-12-18T06:48:04;32.83;;;16.77;;
16502;SDS011;53067;48.114;11.694;2022-12-18T06:50:32;30.07;;;15.73;;
16502;SDS011;53067;48.114;11.694;2022-12-18T06:52:59;26.10;;;13.50;;
16502;SDS011;53067;48.114;11.694;2022-12-18T06:55:27;27.83;;;16.60;;
16502;SDS011;53067;48.114;11.694;2022-12-18T06:57:54;33.30;;;16.07;;
16502;SDS011;53067;48.114;11.694;2022-12-18T07:00:22;25.63;;;15.87;;
16502;SDS011;53067;48.114;11.694;2022-12-18T07:02:50;30.90;;;15.03;;
16502;SDS011;53067;48.114;11.694;2022-12-18T07:05:17;28.57;;;15.37;;
16502;SDS011;53067;48.114;11.694;2022-12-18T07:07:45;31.00;;;15.73;;
16502;SDS011;53067;48.114;11.694;2022-12-18T07:10:12;28.07;;;14.37;;
16502;SDS011;53067;48.114;11.694;2022-12-18T07:12:40;29.27;;;15.00;;
16502;SDS011;53067;48.114;11.694;2022-12-18T07:15:08;31.63;;;15.93;;
16502;SDS011;53067;48.114;11.694;2022-12-18T07:17:38;28.33;;;15.97;;
16502;SDS011;53067;48.114;11.694;2022-12-18T07:20:06;26.00;;;14.73;;
16502;SDS011;53067;48.114;11.694;2022-12-18T07:22:34;29.00;;;16.03;;
16502;SDS011;53067;48.114;11.694;2022-12-18T07:25:01;28.53;;;14.97;;
16502;SDS011;53067;48.114;11.694;2022-12-18T07:27:29;26.33;;;15.47;;
16502;SDS011;53067;48.114;11.694;2022-12-18T07:29:57;30.73;;;15.90;;
16502;SDS011;53067;48.114;11.694;2022-12-18T07:32:24;26.10;;;14.20;;
16502;SDS011;53067;48.114;11.694;2022-12-18T07:34:52;26.90;;;14.33;;
16502;SDS011;53067;48.114;11.694;2022-12-18T07:37:19;23.97;;;12.40;;
16502;SDS011;53067;48.114;11.694;2022-12-18T07:39:47;27.07;;;13.80;;
16502;SDS011;53067;48.114;11.694;2022-12-18T07:42:14;25.93;;;13.73;;
16502;SDS011;53067;48.114;11.694;2022-12-18T07:44:57;27.13;;;14.53;;
16502;SDS011;53067;48.114;11.694;2022-12-18T07:47:25;24.83;;;13.50;;
16502;SDS011;53067;48.114;11.694;2022-12-18T07:49:56;27.20;;;14.23;;
16502;SDS011;53067;48.114;11.694;2022-12-18T07:52:24;26.60;;;14.13;;
16502;SDS011;53067;48.114;11.694;2022-12-18T07:54:51;27.23;;;13.87;;
16502;SDS011;53067;48.114;11.694;2022-12-18T07:57:19;22.27;;;13.13;;
16502;SDS011;53067;48.114;11.694;2022-12-18T07:59:46;25.13;;;13.83;;
16502;SDS011;53067;48.114;11.694;2022-12-18T08:02:14;24.67;;;13.33;;
16502;SDS011;53067;48.114;11.694;2022-12-18T08:04:42;25.50;;;13.23;;
16502;SDS011;53067;48.114;11.694;2022-12-18T08:07:09;25.07;;;12.40;;
16502;SDS011;53067;48.114;11.694;2022-12-18T08:09:37;22.27;;;12.70;;
16502;SDS011;53067;48.114;11.694;2022-12-18T08:12:04;25.00;;;12.97;;
16502;SDS011;53067;48.114;11.694;2022-12-18T08:14:32;21.40;;;12.43;;
16502;SDS011;53067;48.114;11.694;2022-12-18T08:17:00;21.67;;;12.33;;
16502;SDS011;53067;48.114;11.694;2022-12-18T08:19:27;23.83;;;13.33;;
16502;SDS011;53067;48.114;11.694;2022-12-18T08:21:55;24.23;;;13.00;;
16502;SDS011;53067;48.114;11.694;2022-12-18T08:24:22;24.43;;;11.50;;
16502;SDS011;53067;48.114;11.694;2022-12-18T08:26:50;22.00;;;11.57;;
16502;SDS011;53067;48.114;11.694;2022-12-18T08:29:17;19.00;;;12.00;;
16502;SDS011;53067;48.114;11.694;2022-12-18T08:31:45;20.17;;;12.07;;
16502;SDS011;53067;48.114;11.694;2022-12-18T08:34:13;25.50;;;13.20;;
16502;SDS011;53067;48.114;11.694;2022-12-18T08:36:40;21.70;;;12.47;;
16502;SDS011;53067;48.114;11.694;2022-12-18T08:39:08;21.40;;;12.10;;
16502;SDS011;53067;48.114;11.694;2022-12-18T08:41:35;20.73;;;12.10;;
16502;SDS011;53067;48.114;11.694;2022-12-18T08:44:03;21.63;;;11.80;;
16502;SDS011;53067;48.114;11.694;2022-12-18T08:46:48;21.30;;;12.40;;
16502;SDS011;53067;48.114;11.694;2022-12-18T08:49:16;22.37;;;12.60;;
16502;SDS011;53067;48.114;11.694;2022-12-18T08:51:43;25.23;;;13.33;;
16502;SDS011;53067;48.114;11.694;2022-12-18T08:54:11;25.57;;;13.23;;
16502;SDS011;53067;48.114;11.694;2022-12-18T08:56:39;22.67;;;12.67;;
16502;SDS011;53067;48.114;11.694;2022-12-18T08:59:08;23.80;;;12.73;;
16502;SDS011;53067;48.114;11.694;2022-12-18T09:01:36;23.13;;;11.80;;
16502;SDS011;53067;48.114;11.694;2022-12-18T09:04:03;21.33;;;12.60;;
16502;SDS011;53067;48.114;11.694;2022-12-18T09:06:31;23.03;;;11.53;;
16502;SDS011;53067;48.114;11.694;2022-12-18T09:08:58;22.00;;;12.30;;
16502;SDS011;53067;48.114;11.694;2022-12-18T09:11:27;20.27;;;12.00;;
16502;SDS011;53067;48.114;11.694;2022-12-18T09:13:55;20.47;;;12.90;;
16502;SDS011;53067;48.114;11.694;2022-12-18T09:16:24;22.97;;;12.00;;
16502;SDS011;53067;48.114;11.694;2022-12-18T09:18:56;22.77;;;12.70;;
16502;SDS011;53067;48.114;11.694;2022-12-18T09:21:29;22.43;;;13.73;;
16502;SDS011;53067;48.114;11.694;2022-12-18T09:23:58;24.83;;;12.70;;
16502;SDS011;53067;48.114;11.694;2022-12-18T09:26:27;21.50;;;13.23;;
16502;SDS011;53067;48.114;11.694;2022-12-18T09:28:55;25.43;;;13.03;;
16502;SDS011;53067;48.114;11.694;2022-12-18T09:31:22;20.70;;;11.30;;
16502;SDS011;53067;48.114;11.694;2022-12-18T09:33:51;23.50;;;13.07;;
16502;SDS011;53067;48.114;11.694;2022-12-18T09:36:21;20.87;;;10.93;;
16502;SDS011;53067;48.114;11.694;2022-12-18T09:38:48;27.47;;;14.10;;
16502;SDS011;53067;48.114;11.694;2022-12-18T09:41:34;19.73;;;11.63;;
16502;SDS011;53067;48.114;11.694;2022-12-18T09:44:35;22.53;;;12.17;;
16502;SDS011;53067;48.114;11.694;2022-12-18T09:49:56;21.03;;;11.80;;
16502;SDS011;53067;48.114;11.694;2022-12-18T09:57:40;21.70;;;11.77;;
16502;SDS011;53067;48.114;11.694;2022-12-18T10:00:15;20.67;;;12.00;;
16502;SDS011;53067;48.114;11.694;2022-12-18T10:02:46;19.10;;;12.30;;
16502;SDS011;53067;48.114;11.694;2022-12-18T10:05:19;24.77;;;13.53;;
16502;SDS011;53067;48.114;11.694;2022-12-18T10:10:31;23.77;;;12.77;;
16502;SDS011;53067;48.114;11.694;2022-12-18T10:15:54;20.60;;;12.30;;
16502;SDS011;53067;48.114;11.694;2022-12-18T10:21:21;24.73;;;12.00;;
16502;SDS011;53067;48.114;11.694;2022-12-18T10:24:08;21.60;;;12.87;;
16502;SDS011;53067;48.114;11.694;2022-12-18T10:26:52;18.03;;;11.83;;
16502;SDS011;53067;48.114;11.694;2022-12-18T10:29:22;19.53;;;12.23;;
16502;SDS011;53067;48.114;11.694;2022-12-18T10:31:51;23.60;;;12.83;;
16502;SDS011;53067;48.114;11.694;2022-12-18T10:34:18;22.50;;;12.83;;
16502;SDS011;53067;48.114;11.694;2022-12-18T10:36:47;23.57;;;12.40;;
16502;SDS011;53067;48.114;11.694;2022-12-18T10:39:19;23.33;;;12.87;;
16502;SDS011;53067;48.114;11.694;2022-12-18T10:42:40;21.53;;;12.63;;
16502;SDS011;53067;48.114;11.694;2022-12-18T10:44:40;21.10;;;11.73;;
16502;SDS011;53067;48.114;11.694;2022-12-18T10:47:11;19.87;;;11.77;;
16502;SDS011;53067;48.114;11.694;2022-12-18T10:49:48;22.10;;;12.27;;
16502;SDS011;53067;48.114;11.694;2022-12-18T10:52:21;21.30;;;12.27;;
16502;SDS011;53067;48.114;11.694;2022-12-18T10:54:53;19.73;;;12.43;;
16502;SDS011;53067;48.114;11.694;2022-12-18T11:00:20;19.00;;;12.00;;
16502;SDS011;53067;48.114;11.694;2022-12-18T11:02:37;22.70;;;12.10;;
16502;SDS011;53067;48.114;11.694;2022-12-18T11:05:28;22.17;;;12.60;;
16502;SDS011;53067;48.114;11.694;2022-12-18T11:07:51;21.97;;;12.40;;
16502;SDS011;53067;48.114;11.694;2022-12-18T11:10:21;21.23;;;11.53;;
16502;SDS011;53067;48.114;11.694;2022-12-18T11:12:51;21.17;;;11.80;;
16502;SDS011;53067;48.114;11.694;2022-12-18T11:15:26;22.77;;;11.80;;
16502;SDS011;53067;48.114;11.694;2022-12-18T11:17:55;22.07;;;12.23;;
16502;SDS011;53067;48.114;11.694;2022-12-18T11:23:00;19.47;;;11.20;;
16502;SDS011;53067;48.114;11.694;2022-12-18T11:25:33;18.70;;;11.27;;
16502;SDS011;53067;48.114;11.694;2022-12-18T11:28:02;18.37;;;10.90;;
16502;SDS011;53067;48.114;11.694;2022-12-18T11:30:48;19.37;;;11.53;;
16502;SDS011;53067;48.114;11.694;2022-12-18T11:33:21;21.43;;;11.43;;
16502;SDS011;53067;48.114;11.694;2022-12-18T11:35:50;20.13;;;11.50;;
16502;SDS011;53067;48.114;11.694;2022-12-18T11:38:29;21.60;;;10.90;;
16502;SDS011;53067;48.114;11.694;2022-12-18T11:41:15;17.90;;;11.20;;
16502;SDS011;53067;48.114;11.694;2022-12-18T11:43:45;18.80;;;11.90;;
16502;SDS011;53067;48.114;11.694;2022-12-18T11:46:17;19.20;;;11.23;;
16502;SDS011;53067;48.114;11.694;2022-12-18T11:48:52;18.07;;;11.27;;
16502;SDS011;53067;48.114;11.694;2022-12-18T11:51:51;19.47;;;11.10;;
16502;SDS011;53067;48.114;11.694;2022-12-18T11:54:13;18.67;;;10.73;;
16502;SDS011;53067;48.114;11.694;2022-12-18T11:56:48;19.03;;;11.43;;
16502;SDS011;53067;48.114;11.694;2022-12-18T11:59:19;21.13;;;11.97;;
16502;SDS011;53067;48.114;11.694;2022-12-18T12:01:58;19.27;;;10.63;;
16502;SDS011;53067;48.114;11.694;2022-12-18T12:07:17;19.73;;;11.03;;
16502;SDS011;53067;48.114;11.694;2022-12-18T12:20:21;19.93;;;10.93;;
16502;SDS011;53067;48.114;11.694;2022-12-18T12:23:09;19.70;;;11.43;;
16502;SDS011;53067;48.114;11.694;2022-12-18T12:28:38;22.10;;;12.97;;
16502;SDS011;53067;48.114;11.694;2022-12-18T12:31:02;21.43;;;11.97;;
16502;SDS011;53067;48.114;11.694;2022-12-18T12:38:42;21.43;;;11.87;;
16502;SDS011;53067;48.114;11.694;2022-12-18T12:41:14;23.67;;;13.30;;
16502;SDS011;53067;48.114;11.694;2022-12-18T12:44:04;23.60;;;12.33;;
16502;SDS011;53067;48.114;11.694;2022-12-18T12:46:34;21.33;;;11.67;;
16502;SDS011;53067;48.114;11.694;2022-12-18T12:49:07;21.97;;;12.40;;
16502;SDS011;53067;48.114;11.694;2022-12-18T12:51:43;20.07;;;12.33;;
16502;SDS011;53067;48.114;11.694;2022-12-18T12:54:14;20.53;;;12.37;;
16502;SDS011;53067;48.114;11.694;2022-12-18T12:56:44;23.27;;;12.30;;
16502;SDS011;53067;48.114;11.694;2022-12-18T12:59:31;24.63;;;13.43;;
16502;SDS011;53067;48.114;11.694;2022-12-18T13:02:21;21.27;;;12.37;;
16502;SDS011;53067;48.114;11.694;2022-12-18T13:05:07;21.53;;;12.97;;
16502;SDS011;53067;48.114;11.694;2022-12-18T13:07:51;27.90;;;14.83;;
16502;SDS011;53067;48.114;11.694;2022-12-18T13:10:25;22.97;;;12.53;;
16502;SDS011;53067;48.114;11.694;2022-12-18T13:13:02;21.30;;;12.67;;
16502;SDS011;53067;48.114;11.694;2022-12-18T13:15:43;25.87;;;12.77;;
16502;SDS011;53067;48.114;11.694;2022-12-18T13:18:17;22.67;;;12.50;;
16502;SDS011;53067;48.114;11.694;2022-12-18T13:21:32;22.70;;;13.30;;
16502;SDS011;53067;48.114;11.694;2022-12-18T13:34:20;22.70;;;12.17;;
16502;SDS011;53067;48.114;11.694;2022-12-18T13:36:50;20.80;;;12.00;;
16502;SDS011;53067;48.114;11.694;2022-12-18T13:41:52;22.13;;;12.20;;
16502;SDS011;53067;48.114;11.694;2022-12-18T13:44:38;20.40;;;12.13;;
16502;SDS011;53067;48.114;11.694;2022-12-18T13:47:26;24.23;;;11.93;;
16502;SDS011;53067;48.114;11.694;2022-12-18T13:49:56;22.80;;;12.67;;
16502;SDS011;53067;48.114;11.694;2022-12-18T13:52:25;19.33;;;11.77;;
16502;SDS011;53067;48.114;11.694;2022-12-18T13:54:56;21.77;;;12.47;;
16502;SDS011;53067;48.114;11.694;2022-12-18T13:57:32;21.07;;;12.80;;
16502;SDS011;53067;48.114;11.694;2022-12-18T13:59:57;24.27;;;14.03;;
16502;SDS011;53067;48.114;11.694;2022-12-18T14:02:27;25.93;;;13.47;;
16502;SDS011;53067;48.114;11.694;2022-12-18T14:04:55;24.20;;;14.10;;
16502;SDS011;53067;48.114;11.694;2022-12-18T14:07:24;20.90;;;13.03;;
16502;SDS011;53067;48.114;11.694;2022-12-18T14:09:54;22.13;;;13.03;;
16502;SDS011;53067;48.114;11.694;2022-12-18T14:12:24;25.30;;;15.00;;
16502;SDS011;53067;48.114;11.694;2022-12-18T14:15:57;25.10;;;15.10;;
16502;SDS011;53067;48.114;11.694;2022-12-18T14:17:57;22.17;;;12.90;;
16502;SDS011;53067;48.114;11.694;2022-12-18T14:20:29;31.97;;;20.87;;
16502;SDS011;53067;48.114;11.694;2022-12-18T14:22:58;25.83;;;16.50;;
16502;SDS011;53067;48.114;11.694;2022-12-18T14:25:26;26.13;;;15.13;;
16502;SDS011;53067;48.114;11.694;2022-12-18T14:28:11;25.23;;;14.53;;
16502;SDS011;53067;48.114;11.694;2022-12-18T14:30:41;23.10;;;13.50;;
16502;SDS011;53067;48.114;11.694;2022-12-18T14:33:12;23.50;;;13.50;;
16502;SDS011;53067;48.114;11.694;2022-12-18T14:35:57;22.53;;;12.77;;
16502;SDS011;53067;48.114;11.694;2022-12-18T14:38:39;23.17;;;12.93;;
16502;SDS011;53067;48.114;11.694;2022-12-18T14:41:16;31.80;;;18.10;;
16502;SDS011;53067;48.114;11.694;2022-12-18T14:43:41;19.53;;;13.20;;
16502;SDS011;53067;48.114;11.694;2022-12-18T14:46:26;29.10;;;15.50;;
16502;SDS011;53067;48.114;11.694;2022-12-18T14:48:59;25.60;;;13.50;;
16502;SDS011;53067;48.114;11.694;2022-12-18T14:51:52;23.40;;;13.40;;
16502;SDS011;53067;48.114;11.694;2022-12-18T14:54:22;22.23;;;13.10;;
16502;SDS011;53067;48.114;11.694;2022-12-18T14:56:51;20.40;;;12.30;;
16502;SDS011;53067;48.114;11.694;2022-12-18T14:59:25;20.57;;;12.77;;
16502;SDS011;53067;48.114;11.694;2022-12-18T15:01:56;23.83;;;13.03;;
16502;SDS011;53067;48.114;11.694;2022-12-18T15:04:25;29.30;;;15.13;;
16502;SDS011;53067;48.114;11.694;2022-12-18T15:07:05;25.10;;;14.37;;
16502;SDS011;53067;48.114;11.694;2022-12-18T15:10:08;20.60;;;12.40;;
16502;SDS011;53067;48.114;11.694;2022-12-18T15:12:42;24.20;;;13.80;;
16502;SDS011;53067;48.114;11.694;2022-12-18T15:18:15;28.90;;;13.93;;
16502;SDS011;53067;48.114;11.694;2022-12-18T15:20:53;26.40;;;12.77;;
16502;SDS011;53067;48.114;11.694;2022-12-18T15:23:35;32.53;;;15.17;;
16502;SDS011;53067;48.114;11.694;2022-12-18T15:26:16;28.47;;;14.50;;
16502;SDS011;53067;48.114;11.694;2022-12-18T15:36:24;23.07;;;13.83;;
16502;SDS011;53067;48.114;11.694;2022-12-18T15:38:56;31.50;;;14.73;;
16502;SDS011;53067;48.114;11.694;2022-12-18T15:41:24;25.23;;;14.87;;
16502;SDS011;53067;48.114;11.694;2022-12-18T15:43:53;28.33;;;15.60;;
16502;SDS011;53067;48.114;11.694;2022-12-18T15:46:24;28.87;;;14.53;;
16502;SDS011;53067;48.114;11.694;2022-12-18T15:48:53;23.73;;;14.63;;
16502;SDS011;53067;48.114;11.694;2022-12-18T15:51:29;26.03;;;14.23;;
16502;SDS011;53067;48.114;11.694;2022-12-18T15:54:02;28.40;;;15.70;;
16502;SDS011;53067;48.114;11.694;2022-12-18T15:56:32;30.23;;;16.87;;
16502;SDS011;53067;48.114;11.694;2022-12-18T15:59:18;27.80;;;15.57;;
16502;SDS011;53067;48.114;11.694;2022-12-18T16:01:47;25.97;;;13.80;;
16502;SDS011;53067;48.114;11.694;2022-12-18T16:04:19;28.03;;;15.67;;